Time,TemperatureF,DewpointF,PressureIn,WindDirection,WindDirectionDegrees,WindSpeedMPH,WindSpeedGustMPH,Humidity,HourlyPrecipIn,Conditions,Clouds,dailyrainin,SoftwareType,DateUTC
2013-06-17 00:02:00,83.0,48.0,30.07,SSE,165,3.0,8.0,30,0.00,,,0.00,,2013-06-17 06:02:00,
2013-06-17 00:12:00,83.0,49.0,30.07,South,187,4.0,6.0,31,0.00,,,0.00,,2013-06-17 06:12:00,
2013-06-17 00:22:00,82.0,49.0,30.07,SW,217,6.0,8.0,32,0.00,,,0.00,,2013-06-17 06:22:00,
2013-06-17 00:33:00,82.0,51.0,30.07,WSW,243,4.0,9.0,34,0.00,,,0.00,,2013-06-17 06:33:00,
2013-06-17 00:43:00,81.0,50.0,30.06,South,191,3.0,8.0,34,0.00,,,0.00,,2013-06-17 06:43:00,
2013-06-17 00:53:00,81.0,50.0,30.05,South,180,5.0,7.0,34,0.00,,,0.00,,2013-06-17 06:53:00,
2013-06-17 01:02:00,81.0,51.0,30.05,South,172,4.0,8.0,35,0.00,,,0.00,,2013-06-17 07:02:00,
2013-06-17 01:12:00,80.0,51.0,30.05,SSW,194,2.0,7.0,36,0.00,,,0.00,,2013-06-17 07:12:00,
2013-06-17 01:22:00,80.0,51.0,30.05,South,176,2.0,4.0,36,0.00,,,0.00,,2013-06-17 07:22:00,
2013-06-17 01:33:00,79.0,50.0,30.04,South,172,0.0,3.0,37,0.00,,,0.00,,2013-06-17 07:33:00,
2013-06-17 01:42:00,79.0,51.0,30.04,South,172,0.0,0.0,38,0.00,,,0.00,,2013-06-17 07:42:00,
2013-06-17 01:52:00,79.0,51.0,30.04,South,186,0.0,1.0,38,0.00,,,0.00,,2013-06-17 07:52:00,
2013-06-17 02:01:00,78.0,51.0,30.04,South,186,0.0,0.0,39,0.00,,,0.00,,2013-06-17 08:01:00,
2013-06-17 02:11:00,77.0,53.0,30.04,South,186,0.0,0.0,43,0.00,,,0.00,,2013-06-17 08:11:00,
2013-06-17 02:22:00,76.0,52.0,30.04,South,186,0.0,0.0,44,0.00,,,0.00,,2013-06-17 08:22:00,
2013-06-17 02:33:00,76.0,52.0,30.04,WSW,240,1.0,2.0,43,0.00,,,0.00,,2013-06-17 08:33:00,
2013-06-17 02:43:00,77.0,53.0,30.04,WSW,240,1.0,4.0,43,0.00,,,0.00,,2013-06-17 08:43:00,
2013-06-17 02:52:00,77.0,52.0,30.04,South,180,1.0,5.0,42,0.00,,,0.00,,2013-06-17 08:52:00,
2013-06-17 03:02:00,77.0,52.0,30.04,SSW,200,2.0,5.0,42,0.00,,,0.00,,2013-06-17 09:02:00,
2013-06-17 03:11:00,76.0,52.0,30.04,SW,226,3.0,6.0,43,0.00,,,0.00,,2013-06-17 09:11:00,
2013-06-17 03:22:00,76.0,52.0,30.04,South,177,2.0,6.0,44,0.00,,,0.00,,2013-06-17 09:22:00,
2013-06-17 03:34:00,76.0,53.0,30.04,SSE,165,0.0,5.0,45,0.00,,,0.00,,2013-06-17 09:34:00,
2013-06-17 03:43:00,75.0,53.0,30.04,South,183,0.0,3.0,47,0.00,,,0.00,,2013-06-17 09:43:00,
2013-06-17 03:52:00,75.0,54.0,30.04,SSE,163,1.0,2.0,48,0.00,,,0.00,,2013-06-17 09:52:00,
2013-06-17 04:02:00,74.0,53.0,30.04,SE,146,0.0,3.0,48,0.00,,,0.00,,2013-06-17 10:02:00,
2013-06-17 04:12:00,74.0,53.0,30.04,SE,146,0.0,0.0,48,0.00,,,0.00,,2013-06-17 10:12:00,
2013-06-17 04:22:00,74.0,54.0,30.05,SE,146,0.0,0.0,50,0.00,,,0.00,,2013-06-17 10:22:00,
2013-06-17 04:33:00,74.0,55.0,30.05,SSE,159,0.0,1.0,51,0.00,,,0.00,,2013-06-17 10:33:00,
2013-06-17 04:43:00,73.0,54.0,30.05,SSE,159,0.0,0.0,52,0.00,,,0.00,,2013-06-17 10:43:00,
2013-06-17 04:53:00,73.0,54.0,30.05,SSE,159,0.0,0.0,52,0.00,,,0.00,,2013-06-17 10:53:00,
2013-06-17 05:02:00,72.0,54.0,30.05,SSE,159,0.0,0.0,53,0.00,,,0.00,,2013-06-17 11:02:00,
2013-06-17 05:12:00,72.0,54.0,30.05,SSE,159,0.0,0.0,54,0.00,,,0.00,,2013-06-17 11:12:00,
2013-06-17 05:23:00,72.0,54.0,30.05,SSE,159,0.0,0.0,54,0.00,,,0.00,,2013-06-17 11:23:00,
2013-06-17 05:33:00,72.0,54.0,30.05,SSE,159,0.0,0.0,53,0.00,,,0.00,,2013-06-17 11:33:00,
2013-06-17 05:43:00,72.0,54.0,30.06,SSE,159,0.0,0.0,54,0.00,,,0.00,,2013-06-17 11:43:00,
2013-06-17 05:53:00,71.0,54.0,30.06,SSE,159,0.0,0.0,56,0.00,,,0.00,,2013-06-17 11:53:00,
2013-06-17 06:02:00,71.0,55.0,30.08,NNW,329,1.0,5.0,58,0.00,,,0.00,,2013-06-17 12:02:00,
2013-06-17 06:11:00,71.0,54.0,30.08,NNE,15,1.0,3.0,56,0.00,,,0.00,,2013-06-17 12:11:00,
2013-06-17 06:22:00,71.0,54.0,30.08,North,6,0.0,1.0,55,0.00,,,0.00,,2013-06-17 12:22:00,
2013-06-17 06:33:00,71.0,54.0,30.09,North,6,0.0,0.0,55,0.00,,,0.00,,2013-06-17 12:33:00,
2013-06-17 06:43:00,71.0,54.0,30.09,North,6,0.0,0.0,55,0.00,,,0.00,,2013-06-17 12:43:00,
2013-06-17 06:53:00,72.0,54.0,30.09,North,6,0.0,0.0,54,0.00,,,0.00,,2013-06-17 12:53:00,
2013-06-17 07:01:00,72.0,54.0,30.09,North,6,0.0,0.0,53,0.00,,,0.00,,2013-06-17 13:01:00,
2013-06-17 07:12:00,74.0,52.0,30.09,NNE,23,0.0,3.0,47,0.00,,,0.00,,2013-06-17 13:12:00,
2013-06-17 07:22:00,74.0,55.0,30.09,WSW,255,0.0,2.0,51,0.00,,,0.00,,2013-06-17 13:22:00,
2013-06-17 07:43:00,73.0,55.0,30.09,West,270,0.0,0.0,54,0.00,,,0.00,,2013-06-17 13:43:00,
2013-06-17 07:52:00,74.0,55.0,30.09,West,269,0.0,2.0,51,0.00,,,0.00,,2013-06-17 13:52:00,
2013-06-17 08:02:00,75.0,55.0,30.10,WNW,288,1.0,4.0,50,0.00,,,0.00,,2013-06-17 14:02:00,
2013-06-17 08:11:00,76.0,54.0,30.10,WSW,240,1.0,2.0,46,0.00,,,0.00,,2013-06-17 14:11:00,
2013-06-17 08:22:00,77.0,53.0,30.10,WSW,245,0.0,2.0,44,0.00,,,0.00,,2013-06-17 14:22:00,
2013-06-17 08:34:00,78.0,52.0,30.10,WSW,245,0.0,0.0,41,0.00,,,0.00,,2013-06-17 14:34:00,
2013-06-17 08:43:00,80.0,52.0,30.10,South,181,1.0,3.0,38,0.00,,,0.00,,2013-06-17 14:43:00,
2013-06-17 08:53:00,81.0,52.0,30.10,South,173,1.0,3.0,37,0.00,,,0.00,,2013-06-17 14:53:00,
2013-06-17 09:01:00,82.0,52.0,30.10,SSW,203,2.0,4.0,35,0.00,,,0.00,,2013-06-17 15:01:00,
2013-06-17 09:12:00,82.0,50.0,30.11,WSW,242,1.0,5.0,33,0.00,,,0.00,,2013-06-17 15:12:00,
2013-06-17 09:22:00,82.0,52.0,30.11,SW,236,3.0,4.0,35,0.00,,,0.00,,2013-06-17 15:22:00,
2013-06-17 09:33:00,83.0,51.0,30.11,SW,221,0.0,4.0,33,0.00,,,0.00,,2013-06-17 15:33:00,
2013-06-17 09:43:00,84.0,50.0,30.11,North,353,1.0,3.0,31,0.00,,,0.00,,2013-06-17 15:43:00,
2013-06-17 09:52:00,84.0,48.0,30.11,NNW,342,1.0,4.0,29,0.00,,,0.00,,2013-06-17 15:52:00,
2013-06-17 10:02:00,85.0,50.0,30.11,ENE,63,0.0,3.0,30,0.00,,,0.00,,2013-06-17 16:02:00,
2013-06-17 10:11:00,87.0,50.0,30.11,West,263,0.0,4.0,28,0.00,,,0.00,,2013-06-17 16:11:00,
2013-06-17 10:22:00,87.0,49.0,30.11,West,263,0.0,0.0,27,0.00,,,0.00,,2013-06-17 16:22:00,
2013-06-17 10:33:00,88.0,49.0,30.11,North,356,1.0,3.0,26,0.00,,,0.00,,2013-06-17 16:33:00,
2013-06-17 10:43:00,87.0,49.0,30.10,SW,233,1.0,6.0,27,0.00,,,0.00,,2013-06-17 16:43:00,
2013-06-17 10:53:00,87.0,47.0,30.10,WNW,290,1.0,5.0,25,0.00,,,0.00,,2013-06-17 16:53:00,
2013-06-17 11:02:00,89.0,47.0,30.10,North,354,0.0,4.0,24,0.00,,,0.00,,2013-06-17 17:02:00,
2013-06-17 11:12:00,89.0,47.0,30.10,SW,222,4.0,5.0,24,0.00,,,0.00,,2013-06-17 17:12:00,
2013-06-17 11:22:00,88.0,49.0,30.10,WSW,250,5.0,7.0,26,0.00,,,0.00,,2013-06-17 17:22:00,
2013-06-17 11:33:00,88.0,48.0,30.10,SW,221,4.0,6.0,25,0.00,,,0.00,,2013-06-17 17:33:00,
2013-06-17 11:43:00,88.0,49.0,30.11,West,277,4.0,8.0,26,0.00,,,0.00,,2013-06-17 17:43:00,
2013-06-17 11:52:00,87.0,50.0,30.11,North,1,2.0,6.0,28,0.00,,,0.00,,2013-06-17 17:52:00,
2013-06-17 12:02:00,86.0,50.0,30.10,ESE,104,1.0,5.0,29,0.00,,,0.00,,2013-06-17 18:02:00,
2013-06-17 12:12:00,87.0,48.0,30.10,East,94,0.0,2.0,26,0.00,,,0.00,,2013-06-17 18:12:00,
2013-06-17 12:23:00,89.0,46.0,30.10,WSW,257,2.0,5.0,23,0.00,,,0.00,,2013-06-17 18:23:00,
2013-06-17 12:43:00,89.0,45.0,30.09,NE,44,2.0,3.0,22,0.00,,,0.00,,2013-06-17 18:43:00,
2013-06-17 13:02:00,90.0,46.0,30.07,NNW,345,0.0,3.0,22,0.00,,,0.00,,2013-06-17 19:02:00,
2013-06-17 14:22:00,95.0,38.0,30.03,East,101,1.0,10.0,14,0.00,,,0.00,,2013-06-17 20:22:00,
2013-06-17 15:33:00,97.0,38.0,30.00,WSW,240,7.0,13.0,13,0.00,,,0.00,,2013-06-17 21:33:00,
2013-06-17 15:52:00,95.0,40.0,30.00,SW,226,11.0,18.0,15,0.00,,,0.00,,2013-06-17 21:52:00,
2013-06-17 16:01:00,92.0,45.0,30.00,SW,228,14.0,25.0,20,0.00,,,0.00,,2013-06-17 22:01:00,
2013-06-17 16:11:00,92.0,44.0,30.00,South,191,13.0,20.0,19,0.00,,,0.00,,2013-06-17 22:11:00,
2013-06-17 16:22:00,91.0,44.0,30.00,SW,229,8.0,19.0,20,0.00,,,0.00,,2013-06-17 22:22:00,
2013-06-17 16:33:00,90.0,43.0,30.00,SE,128,5.0,11.0,20,0.00,,,0.00,,2013-06-17 22:33:00,
2013-06-17 16:43:00,91.0,42.0,29.99,South,181,6.0,12.0,18,0.00,,,0.00,,2013-06-17 22:43:00,
2013-06-17 16:53:00,91.0,42.0,29.99,SW,219,2.0,10.0,18,0.00,,,0.00,,2013-06-17 22:53:00,
2013-06-17 17:02:00,91.0,42.0,29.99,East,94,5.0,7.0,18,0.00,,,0.00,,2013-06-17 23:02:00,
2013-06-17 17:22:00,92.0,41.0,29.98,ENE,70,8.0,12.0,17,0.00,,,0.00,,2013-06-17 23:22:00,
2013-06-17 19:34:00,92.0,41.0,29.93,SW,233,5.0,9.0,17,0.00,,,0.00,,2013-06-18 01:34:00,
2013-06-17 19:44:00,92.0,42.0,29.94,SSW,201,4.0,8.0,18,0.00,,,0.00,,2013-06-18 01:44:00,
2013-06-17 19:53:00,91.0,42.0,29.94,SSW,201,3.0,7.0,18,0.00,,,0.00,,2013-06-18 01:53:00,
2013-06-17 20:02:00,91.0,44.0,29.94,SSW,208,3.0,5.0,20,0.00,,,0.00,,2013-06-18 02:02:00,
2013-06-17 20:11:00,90.0,43.0,29.95,SSW,207,3.0,5.0,20,0.00,,,0.00,,2013-06-18 02:11:00,
2013-06-17 20:22:00,90.0,45.0,29.95,SSE,166,0.0,4.0,21,0.00,,,0.00,,2013-06-18 02:22:00,
2013-06-17 20:34:00,89.0,46.0,29.95,WSW,252,1.0,2.0,23,0.00,,,0.00,,2013-06-18 02:34:00,
2013-06-17 20:43:00,88.0,47.0,29.96,SW,221,4.0,6.0,24,0.00,,,0.00,,2013-06-18 02:43:00,
2013-06-17 20:53:00,88.0,46.0,29.96,SSW,211,6.0,11.0,23,0.00,,,0.00,,2013-06-18 02:53:00,
2013-06-17 21:02:00,87.0,49.0,29.96,South,184,3.0,9.0,27,0.00,,,0.00,,2013-06-18 03:02:00,
2013-06-17 21:12:00,85.0,50.0,29.96,SSW,204,3.0,6.0,30,0.00,,,0.00,,2013-06-18 03:12:00,
2013-06-17 21:23:00,84.0,50.0,29.97,SSE,156,4.0,9.0,31,0.00,,,0.00,,2013-06-18 03:23:00,
2013-06-17 21:34:00,83.0,49.0,29.98,WSW,245,5.0,7.0,31,0.00,,,0.00,,2013-06-18 03:34:00,
2013-06-17 21:42:00,83.0,50.0,29.98,South,179,5.0,7.0,32,0.00,,,0.00,,2013-06-18 03:42:00,
2013-06-17 21:53:00,84.0,48.0,29.99,SSE,166,6.0,16.0,29,0.00,,,0.00,,2013-06-18 03:53:00,
2013-06-17 22:01:00,84.0,47.0,30.00,SSW,200,5.0,11.0,28,0.00,,,0.00,,2013-06-18 04:01:00,
2013-06-17 22:12:00,84.0,47.0,30.00,South,188,9.0,16.0,28,0.00,,,0.00,,2013-06-18 04:12:00,
2013-06-17 22:22:00,84.0,47.0,30.00,SSE,166,7.0,16.0,28,0.00,,,0.00,,2013-06-18 04:22:00,
2013-06-17 22:34:00,84.0,46.0,30.01,SSW,193,9.0,14.0,27,0.00,,,0.00,,2013-06-18 04:34:00,
2013-06-17 22:43:00,83.0,47.0,30.02,SSE,166,7.0,14.0,29,0.00,,,0.00,,2013-06-18 04:43:00,
2013-06-17 22:53:00,83.0,48.0,30.02,South,176,7.0,13.0,30,0.00,,,0.00,,2013-06-18 04:53:00,
2013-06-17 23:02:00,83.0,50.0,30.02,SSW,205,8.0,16.0,32,0.00,,,0.00,,2013-06-18 05:02:00,
2013-06-17 23:12:00,82.0,52.0,30.03,SSE,159,8.0,20.0,36,0.00,,,0.00,,2013-06-18 05:12:00,
2013-06-17 23:22:00,82.0,54.0,30.03,SSE,159,8.0,15.0,38,0.00,,,0.00,,2013-06-18 05:22:00,
2013-06-17 23:33:00,81.0,54.0,30.03,SSW,200,7.0,12.0,40,0.00,,,0.00,,2013-06-18 05:33:00,
2013-06-17 23:43:00,81.0,55.0,30.04,SW,231,4.0,10.0,41,0.00,,,0.00,,2013-06-18 05:43:00,
2013-06-17 23:53:00,80.0,55.0,30.04,SSW,210,4.0,10.0,43,0.00,,,0.00,,2013-06-18 05:53:00,